Devils Lake, ND

2:48 PM CST on February 24, 2017 (GMT -0600)
Lake Region RadioWorks | | Change Station

Elev 1431 ft 48.11 °N, 98.87 °W | Updated 2 minutes ago

Overcast
Overcast
20.0 °F
Feels Like 9 °F
N
10.0
Wind Variable Wind from NW
Gusts 11.0 mph

Today
High -- | Low -- °F
--% Chance of Precip.
Yesterday
High -- | Low -- °F
Precip. -- in
Pressure 30.25 in
Visibility 9.0 miles
Clouds Overcast 1700 ft
Windchill 9 °F
Dew Point 14 °F
Humidity 77%
Rainfall 0.00 in
Snow Depth Not available.
7:25 AM 6:12 PM
Waning Crescent, 4% visible
METAR KDVL 241956Z AUTO 33010KT 9SM OVC017 M07/M10 A3011 RMK AO2 SNB02E24B44E54 SLP241 P0000 T10671100 FZRANO
Pressure 30.25 in
Visibility 9.0 miles
Clouds Overcast 1700 ft
Windchill 9 °F
Dew Point 14 °F
Humidity 77%
Rainfall 0.00 in
Snow Depth Not available.
7:25 AM 6:12 PM
Waning Crescent, 4% visible
METAR KDVL 241956Z AUTO 33010KT 9SM OVC017 M07/M10 A3011 RMK AO2 SNB02E24B44E54 SLP241 P0000 T10671100 FZRANO

Get Your Daily Forecast Email!

Thanks for signing up!

Be on the lookout for a verification email in your inbox.

You'll start receiving the daily forecast at 8 AM.

×

10-Day Weather Forecast

Almanac

Astronomy

Feb. 24, 2017 Rise Set
Actual Time
Civil Twilight
Nautical Twilight
Astronomical Twilight
Moon
Length of Visible Light
Length of Day
Tomorrow will be .
, % of the Moon is Illuminated

Today's Extremes

State Highs State Lows

Community

WunderPhotos

Upload Photos

1,962,540 photos uploaded!

WunderBlog® & News

Nearby

Air Quality

  Air Quality AQ Index Pollutant
Not available.

Snow Depth

Station Depth Elevation

Earthquake Activity

City Distance Mag. Time & Date
Minimum magnitude displayed is 2.5.

Coastal Water Temperatures

Place Temperature

Stations

Nearby Weather Stations

Station Location Temp. Windchill Dew Point Humidity Wind Precip. Elev Updated Type
                   

Watches & Warnings

There are currently no watches in effect.